Saturday, November 29, 2014, 12:59 AM EST

KEZF, Fredericksburg, Shannon Airport

Location: Fredericksburg, VA, United States Lat: 38.267
Local Time: 12:59 AM EST ( 5:59 GMT) Lon: -77.45
Time Zone: US/Eastern Elev: 85 ft

Show me the last for .
Show Decoded

2014-11-29 00:35 METAR KEZF 290535Z AUTO 00000KT 10SM CLR M02/M04 A3030 RMK AO2 T10251043 =
2014-11-29 00:15 METAR KEZF 290515Z AUTO 00000KT 10SM CLR M03/M05 A3031 RMK AO2 T10291048 =
2014-11-28 23:55 METAR KEZF 290455Z AUTO 00000KT 10SM CLR M03/M05 A3030 RMK AO2 T10301053 =
2014-11-28 23:35 METAR KEZF 290435Z AUTO 00000KT 10SM CLR M03/M05 A3030 RMK AO2 T10351054 =
2014-11-28 23:15 METAR KEZF 290415Z AUTO 00000KT 10SM CLR M03/M05 A3030 RMK AO2 T10311051 =
2014-11-28 22:55 METAR KEZF 290355Z AUTO 00000KT 10SM CLR M03/M05 A3030 RMK AO2 T10301046 =
2014-11-28 22:35 METAR KEZF 290335Z AUTO 00000KT 10SM CLR M03/M05 A3030 RMK AO2 T10281050 =
2014-11-28 22:15 METAR KEZF 290315Z AUTO 00000KT 10SM CLR M02/M05 A3029 RMK AO2 T10251053 =
2014-11-28 21:55 METAR KEZF 290255Z AUTO 00000KT 10SM CLR M02/M05 A3029 RMK AO2 T10241055 =
2014-11-28 21:35 METAR KEZF 290235Z AUTO 00000KT 10SM CLR M03/M05 A3029 RMK AO2 T10261055 =
2014-11-28 21:15 METAR KEZF 290215Z AUTO 00000KT 10SM CLR M02/M05 A3030 RMK AO2 T10201055 =
2014-11-28 20:55 METAR KEZF 290155Z AUTO 00000KT 10SM CLR M03/M06 A3030 RMK AO2 T10281057 =
2014-11-28 20:35 METAR KEZF 290135Z AUTO 00000KT 10SM CLR M02/M05 A3030 RMK AO2 T10171053 =
2014-11-28 20:15 METAR KEZF 290115Z AUTO 00000KT 10SM CLR M02/M05 A3031 RMK AO2 T10171051 =
2014-11-28 19:55 METAR KEZF 290055Z AUTO 00000KT 10SM CLR M01/M05 A3031 RMK AO2 T10101049 =
2014-11-28 19:35 METAR KEZF 290035Z AUTO 00000KT 10SM CLR M01/M05 A3030 RMK AO2 T10111051 =
2014-11-28 19:15 METAR KEZF 290015Z AUTO 00000KT 10SM CLR 00/M05 A3030 RMK AO2 T10041053 =
2014-11-28 18:35 METAR KEZF 282335Z AUTO 00000KT 10SM CLR 00/M05 A3028 RMK AO2 T10031048 =
2014-11-28 18:15 METAR KEZF 282315Z AUTO 00000KT 10SM CLR 00/M04 A3028 RMK AO2 T00001045 =
2014-11-28 17:55 METAR KEZF 282255Z AUTO 00000KT 10SM CLR 01/M06 A3029 RMK AO2 T00101059 =
2014-11-28 17:35 METAR KEZF 282235Z AUTO 00000KT 10SM CLR 02/M07 A3029 RMK AO2 T00211069 =
2014-11-28 17:15 METAR KEZF 282215Z AUTO 00000KT 10SM CLR 03/M07 A3029 RMK AO2 T00271074 =
2014-11-28 16:55 METAR KEZF 282155Z AUTO 32005KT 10SM SCT110 03/M07 A3029 RMK AO2 T00311073 =
2014-11-28 16:15 METAR KEZF 282115Z AUTO 31007KT 10SM CLR 04/M07 A3029 RMK AO2 T00401075 =
2014-11-28 15:55 METAR KEZF 282055Z AUTO 31009KT 10SM SCT120 05/M08 A3027 RMK AO2 T00461076 =
2014-11-28 15:35 METAR KEZF 282035Z AUTO 30009KT 10SM CLR 05/M08 A3027 RMK AO2 T00461081 =
2014-11-28 15:15 METAR KEZF 282015Z AUTO 31010KT 10SM CLR 05/M07 A3027 RMK AO2 T00511075 =
2014-11-28 14:35 METAR KEZF 281935Z AUTO 28011KT 10SM CLR 06/M08 A3027 RMK AO2 T00551079 =
2014-11-28 14:15 METAR KEZF 281915Z AUTO 28008KT 10SM CLR 06/M08 A3026 RMK AO2 T00551077 =
2014-11-28 13:55 METAR KEZF 281855Z AUTO 32011G17KT 10SM CLR 06/M07 A3027 RMK AO2 T00551073 =
2014-11-28 13:35 METAR KEZF 281835Z AUTO 31011G16KT 10SM SCT050 06/M07 A3027 RMK AO2 T00591067 =
2014-11-28 13:15 METAR KEZF 281815Z AUTO 33007G14KT 290V350 10SM SCT050 05/M07 A3028 RMK AO2
                 T00491068 =
2014-11-28 12:55 METAR KEZF 281755Z AUTO 30010G17KT 10SM SCT050 05/M07 A3028 RMK AO2 T00511074
                 10060 21028 =
2014-11-28 12:35 METAR KEZF 281735Z AUTO 29007G14KT 270V340 10SM SCT050 05/M07 A3028 RMK AO2
                 T00491074 =
2014-11-28 12:15 METAR KEZF 281715Z AUTO 32009G17KT 290V350 10SM BKN050 06/M06 A3029 RMK AO2
                 T00561063 =
2014-11-28 11:55 METAR KEZF 281655Z AUTO 33007G15KT 10SM SCT050 05/M07 A3030 RMK AO2 T00471070 =
2014-11-28 11:35 METAR KEZF 281635Z AUTO 31013G17KT 10SM SCT049 05/M06 A3030 RMK AO2 T00501065 =
2014-11-28 11:15 METAR KEZF 281615Z AUTO 34007G14KT 10SM SCT049 05/M07 A3031 RMK AO2 T00461068 =
2014-11-28 10:55 METAR KEZF 281555Z AUTO 32009G21KT 10SM SCT049 04/M07 A3032 RMK AO2 T00381067 =
2014-11-28 10:35 METAR KEZF 281535Z AUTO 31008KT 10SM CLR 05/M05 A3033 RMK AO2 T00451055 =
2014-11-28 10:15 METAR KEZF 281515Z AUTO 32008KT 10SM CLR 04/M06 A3034 RMK AO2 T00371057 =
2014-11-28 09:55 METAR KEZF 281455Z AUTO 32016G23KT 10SM CLR 04/M05 A3032 RMK AO2 T00371053 =
2014-11-28 09:35 METAR KEZF 281435Z AUTO 33012G18KT 10SM CLR 03/M05 A3033 RMK AO2 T00331050 =
2014-11-28 09:15 METAR KEZF 281415Z AUTO 32009G15KT 10SM CLR 03/M05 A3033 RMK AO2 T00301046 =
2014-11-28 08:55 METAR KEZF 281355Z AUTO 31007KT 10SM CLR 03/M04 A3033 RMK AO2 T00251044 =
2014-11-28 08:35 METAR KEZF 281335Z AUTO 31007KT 10SM CLR 02/M04 A3032 RMK AO2 T00171041 =
2014-11-28 08:15 METAR KEZF 281315Z AUTO 33003KT 10SM CLR 01/M04 A3032 RMK AO2 T00121044 =
2014-11-28 07:55 METAR KEZF 281255Z AUTO 28006KT 10SM CLR 00/M04 A3031 RMK AO2 T10021041 =
2014-11-28 07:35 METAR KEZF 281235Z AUTO 28005KT 10SM CLR M02/M05 A3031 RMK AO2 T10181046 =
2014-11-28 07:15 METAR KEZF 281215Z AUTO 26004KT 10SM CLR M02/M05 A3030 RMK AO2 T10251048 =
2014-11-28 06:35 METAR KEZF 281135Z AUTO 31003KT 10SM SCT050 M02/M04 A3029 RMK AO2 T10191045 =
2014-11-28 06:15 METAR KEZF 281115Z AUTO 00000KT 10SM CLR M01/M05 A3028 RMK AO2 T10071048 =
2014-11-28 05:55 METAR KEZF 281055Z AUTO 29003KT 10SM CLR 00/M05 A3027 RMK AO2 T10051048 =
2014-11-28 05:35 METAR KEZF 281035Z AUTO 00000KT 10SM CLR M01/M05 A3027 RMK AO2 T10091050 =
2014-11-28 05:15 METAR KEZF 281015Z AUTO 27004KT 10SM CLR 00/M05 A3026 RMK AO2 T00031051 =
2014-11-28 04:55 METAR KEZF 280955Z AUTO 28006KT 10SM CLR 00/M04 A3026 RMK AO2 T10051045 =
2014-11-28 04:35 METAR KEZF 280935Z AUTO 26004KT 10SM CLR M01/M04 A3025 RMK AO2 T10061042 =
2014-11-28 04:15 METAR KEZF 280915Z AUTO 27004KT 10SM CLR M01/M04 A3024 RMK AO2 T10101037 =
2014-11-28 03:55 METAR KEZF 280855Z AUTO 28006KT 10SM CLR M02/M03 A3024 RMK AO2 T10211033 =
2014-11-28 03:35 METAR KEZF 280835Z AUTO 28004KT 10SM CLR M01/M03 A3024 RMK AO2 T10151030 =
2014-11-28 03:15 METAR KEZF 280815Z AUTO 30004KT 10SM CLR M01/M03 A3023 RMK AO2 T10111028 =
2014-11-28 02:55 METAR KEZF 280755Z AUTO 30003KT 10SM CLR M01/M03 A3023 RMK AO2 T10131033 =
2014-11-28 02:35 METAR KEZF 280735Z AUTO 31003KT 10SM CLR 00/M03 A3023 RMK AO2 T00021033 =
2014-11-28 02:15 METAR KEZF 280715Z AUTO 32003KT 10SM CLR 01/M03 A3022 RMK AO2 T00061032 =
2014-11-28 01:55 METAR KEZF 280655Z AUTO 32005KT 10SM CLR 01/M03 A3022 RMK AO2 T00081030 =
2014-11-28 01:35 METAR KEZF 280635Z AUTO 31005KT 10SM CLR 01/M03 A3021 RMK AO2 T00111029 =
2014-11-28 01:15 METAR KEZF 280615Z AUTO 31006KT 10SM CLR 01/M02 A3020 RMK AO2 T00051025 =

Support USWX by starting your Amazon purchase here.